sensor_id;sensor_type;location;lat;lon;timestamp;pressure;altitude;pressure_sealevel;temperature
69590;BMP180;56792;50.644;17.984;2023-06-10T00:02:17;99487.40;;;16.50
69590;BMP180;56792;50.644;17.984;2023-06-10T00:04:49;99485.80;;;16.50
69590;BMP180;56792;50.644;17.984;2023-06-10T00:07:20;99485.40;;;16.50
69590;BMP180;56792;50.644;17.984;2023-06-10T00:09:50;99480.00;;;16.50
69590;BMP180;56792;50.644;17.984;2023-06-10T00:12:22;99479.00;;;16.50
69590;BMP180;56792;50.644;17.984;2023-06-10T00:14:52;99479.20;;;16.50
69590;BMP180;56792;50.644;17.984;2023-06-10T00:17:24;99483.60;;;16.50
69590;BMP180;56792;50.644;17.984;2023-06-10T00:19:55;99485.40;;;16.50
69590;BMP180;56792;50.644;17.984;2023-06-10T00:22:26;99483.40;;;16.50
69590;BMP180;56792;50.644;17.984;2023-06-10T00:24:59;99485.00;;;16.50
69590;BMP180;56792;50.644;17.984;2023-06-10T00:27:30;99485.00;;;16.50
69590;BMP180;56792;50.644;17.984;2023-06-10T00:30:06;99484.20;;;16.50
69590;BMP180;56792;50.644;17.984;2023-06-10T00:32:38;99482.00;;;16.50
69590;BMP180;56792;50.644;17.984;2023-06-10T00:35:10;99475.80;;;16.50
69590;BMP180;56792;50.644;17.984;2023-06-10T00:37:41;99476.40;;;16.50
69590;BMP180;56792;50.644;17.984;2023-06-10T00:40:13;99478.80;;;16.50
69590;BMP180;56792;50.644;17.984;2023-06-10T00:42:45;99478.00;;;16.50
69590;BMP180;56792;50.644;17.984;2023-06-10T00:45:16;99481.20;;;16.50
69590;BMP180;56792;50.644;17.984;2023-06-10T00:47:47;99482.40;;;16.50
69590;BMP180;56792;50.644;17.984;2023-06-10T00:50:18;99483.20;;;16.50
69590;BMP180;56792;50.644;17.984;2023-06-10T00:52:49;99482.40;;;16.50
69590;BMP180;56792;50.644;17.984;2023-06-10T00:55:21;99478.80;;;16.50
69590;BMP180;56792;50.644;17.984;2023-06-10T00:57:54;99483.20;;;16.50
69590;BMP180;56792;50.644;17.984;2023-06-10T01:00:25;99479.80;;;16.50
69590;BMP180;56792;50.644;17.984;2023-06-10T01:02:57;99478.00;;;16.50
69590;BMP180;56792;50.644;17.984;2023-06-10T01:05:30;99474.20;;;16.50
69590;BMP180;56792;50.644;17.984;2023-06-10T01:08:09;99471.60;;;16.50
69590;BMP180;56792;50.644;17.984;2023-06-10T01:10:52;99475.00;;;16.50
69590;BMP180;56792;50.644;17.984;2023-06-10T01:13:26;99472.40;;;16.50
69590;BMP180;56792;50.644;17.984;2023-06-10T01:16:01;99472.20;;;16.50
69590;BMP180;56792;50.644;17.984;2023-06-10T01:18:34;99470.20;;;16.50
69590;BMP180;56792;50.644;17.984;2023-06-10T01:21:05;99474.20;;;16.50
69590;BMP180;56792;50.644;17.984;2023-06-10T01:23:37;99472.00;;;16.50
69590;BMP180;56792;50.644;17.984;2023-06-10T01:26:11;99473.80;;;16.50
69590;BMP180;56792;50.644;17.984;2023-06-10T01:28:51;99473.00;;;16.50
69590;BMP180;56792;50.644;17.984;2023-06-10T01:31:36;99475.80;;;16.50
69590;BMP180;56792;50.644;17.984;2023-06-10T01:34:14;99473.60;;;16.50
69590;BMP180;56792;50.644;17.984;2023-06-10T01:36:49;99475.80;;;16.50
69590;BMP180;56792;50.644;17.984;2023-06-10T01:39:24;99476.20;;;16.50
69590;BMP180;56792;50.644;17.984;2023-06-10T01:41:56;99476.20;;;16.48
69590;BMP180;56792;50.644;17.984;2023-06-10T01:44:28;99482.80;;;16.48
69590;BMP180;56792;50.644;17.984;2023-06-10T01:46:58;99482.00;;;16.40
69590;BMP180;56792;50.644;17.984;2023-06-10T01:49:30;99483.40;;;16.40
69590;BMP180;56792;50.644;17.984;2023-06-10T01:52:02;99481.80;;;16.40
69590;BMP180;56792;50.644;17.984;2023-06-10T01:54:33;99486.00;;;16.40
69590;BMP180;56792;50.644;17.984;2023-06-10T01:57:05;99482.80;;;16.40
69590;BMP180;56792;50.644;17.984;2023-06-10T01:59:36;99486.40;;;16.40
69590;BMP180;56792;50.644;17.984;2023-06-10T02:02:08;99485.40;;;16.40
69590;BMP180;56792;50.644;17.984;2023-06-10T02:04:39;99490.60;;;16.40
69590;BMP180;56792;50.644;17.984;2023-06-10T02:07:10;99486.60;;;16.40
69590;BMP180;56792;50.644;17.984;2023-06-10T02:09:41;99485.20;;;16.40
69590;BMP180;56792;50.644;17.984;2023-06-10T02:12:13;99478.60;;;16.40
69590;BMP180;56792;50.644;17.984;2023-06-10T02:14:44;99484.40;;;16.40
69590;BMP180;56792;50.644;17.984;2023-06-10T02:17:15;99484.40;;;16.40
69590;BMP180;56792;50.644;17.984;2023-06-10T02:19:46;99482.00;;;16.40
69590;BMP180;56792;50.644;17.984;2023-06-10T02:22:23;99481.80;;;16.40
69590;BMP180;56792;50.644;17.984;2023-06-10T02:24:55;99481.00;;;16.40
69590;BMP180;56792;50.644;17.984;2023-06-10T02:27:25;99484.00;;;16.40
69590;BMP180;56792;50.644;17.984;2023-06-10T02:29:58;99482.00;;;16.40
69590;BMP180;56792;50.644;17.984;2023-06-10T02:32:29;99487.80;;;16.40
69590;BMP180;56792;50.644;17.984;2023-06-10T02:35:00;99490.40;;;16.40
69590;BMP180;56792;50.644;17.984;2023-06-10T02:37:31;99484.40;;;16.40
69590;BMP180;56792;50.644;17.984;2023-06-10T02:40:03;99483.80;;;16.40
69590;BMP180;56792;50.644;17.984;2023-06-10T02:42:35;99478.60;;;16.40
69590;BMP180;56792;50.644;17.984;2023-06-10T02:45:09;99477.80;;;16.40
69590;BMP180;56792;50.644;17.984;2023-06-10T02:47:44;99482.40;;;16.40
69590;BMP180;56792;50.644;17.984;2023-06-10T02:50:15;99486.20;;;16.40
69590;BMP180;56792;50.644;17.984;2023-06-10T02:52:54;99486.60;;;16.40
69590;BMP180;56792;50.644;17.984;2023-06-10T02:55:26;99494.40;;;16.40
69590;BMP180;56792;50.644;17.984;2023-06-10T02:57:59;99498.20;;;16.40
69590;BMP180;56792;50.644;17.984;2023-06-10T03:00:30;99505.00;;;16.40
69590;BMP180;56792;50.644;17.984;2023-06-10T03:03:01;99503.80;;;16.40
69590;BMP180;56792;50.644;17.984;2023-06-10T03:05:38;99509.20;;;16.40
69590;BMP180;56792;50.644;17.984;2023-06-10T03:08:10;99511.00;;;16.40
69590;BMP180;56792;50.644;17.984;2023-06-10T03:10:43;99509.40;;;16.40
69590;BMP180;56792;50.644;17.984;2023-06-10T03:13:14;99516.00;;;16.40
69590;BMP180;56792;50.644;17.984;2023-06-10T03:15:46;99515.80;;;16.40
69590;BMP180;56792;50.644;17.984;2023-06-10T03:18:20;99516.40;;;16.40
69590;BMP180;56792;50.644;17.984;2023-06-10T03:20:53;99521.40;;;16.40
69590;BMP180;56792;50.644;17.984;2023-06-10T03:23:25;99525.40;;;16.40
69590;BMP180;56792;50.644;17.984;2023-06-10T03:25:57;99528.80;;;16.42
69590;BMP180;56792;50.644;17.984;2023-06-10T03:28:28;99528.60;;;16.40
69590;BMP180;56792;50.644;17.984;2023-06-10T03:30:59;99530.80;;;16.44
69590;BMP180;56792;50.644;17.984;2023-06-10T03:33:31;99528.40;;;16.48
69590;BMP180;56792;50.644;17.984;2023-06-10T03:36:02;99529.80;;;16.50
69590;BMP180;56792;50.644;17.984;2023-06-10T03:38:34;99533.80;;;16.50
69590;BMP180;56792;50.644;17.984;2023-06-10T03:41:05;99530.80;;;16.50
69590;BMP180;56792;50.644;17.984;2023-06-10T03:43:36;99528.60;;;16.60
69590;BMP180;56792;50.644;17.984;2023-06-10T03:46:08;99526.00;;;16.60
69590;BMP180;56792;50.644;17.984;2023-06-10T03:48:40;99532.80;;;16.60
69590;BMP180;56792;50.644;17.984;2023-06-10T03:51:12;99527.60;;;16.70
69590;BMP180;56792;50.644;17.984;2023-06-10T03:53:43;99531.80;;;16.70
69590;BMP180;56792;50.644;17.984;2023-06-10T03:56:14;99535.40;;;16.70
69590;BMP180;56792;50.644;17.984;2023-06-10T03:58:45;99537.40;;;16.70
69590;BMP180;56792;50.644;17.984;2023-06-10T04:01:16;99533.80;;;16.72
69590;BMP180;56792;50.644;17.984;2023-06-10T04:03:50;99531.60;;;16.80
69590;BMP180;56792;50.644;17.984;2023-06-10T04:06:23;99535.80;;;16.80
69590;BMP180;56792;50.644;17.984;2023-06-10T04:08:57;99537.80;;;16.80
69590;BMP180;56792;50.644;17.984;2023-06-10T04:11:30;99535.80;;;16.90
69590;BMP180;56792;50.644;17.984;2023-06-10T04:14:01;99541.40;;;16.90
69590;BMP180;56792;50.644;17.984;2023-06-10T04:16:33;99535.00;;;16.90
69590;BMP180;56792;50.644;17.984;2023-06-10T04:19:04;99537.60;;;17.00
69590;BMP180;56792;50.644;17.984;2023-06-10T04:21:35;99541.20;;;17.00
69590;BMP180;56792;50.644;17.984;2023-06-10T04:24:07;99544.20;;;17.10
69590;BMP180;56792;50.644;17.984;2023-06-10T04:26:39;99545.20;;;17.10
69590;BMP180;56792;50.644;17.984;2023-06-10T04:29:10;99544.60;;;17.10
69590;BMP180;56792;50.644;17.984;2023-06-10T04:31:42;99544.20;;;17.20
69590;BMP180;56792;50.644;17.984;2023-06-10T04:34:15;99541.80;;;17.20
69590;BMP180;56792;50.644;17.984;2023-06-10T04:36:46;99540.20;;;17.20
69590;BMP180;56792;50.644;17.984;2023-06-10T04:39:17;99541.40;;;17.20
69590;BMP180;56792;50.644;17.984;2023-06-10T04:41:49;99538.00;;;17.30
69590;BMP180;56792;50.644;17.984;2023-06-10T04:44:21;99542.00;;;17.30
69590;BMP180;56792;50.644;17.984;2023-06-10T04:46:52;99540.80;;;17.40
69590;BMP180;56792;50.644;17.984;2023-06-10T04:49:24;99544.00;;;17.40
69590;BMP180;56792;50.644;17.984;2023-06-10T04:51:55;99544.00;;;17.50
69590;BMP180;56792;50.644;17.984;2023-06-10T04:54:26;99547.80;;;17.50
69590;BMP180;56792;50.644;17.984;2023-06-10T04:56:57;99549.60;;;17.58
69590;BMP180;56792;50.644;17.984;2023-06-10T04:59:28;99549.80;;;17.60
69590;BMP180;56792;50.644;17.984;2023-06-10T05:01:59;99547.00;;;17.70
69590;BMP180;56792;50.644;17.984;2023-06-10T05:04:30;99554.00;;;17.76
69590;BMP180;56792;50.644;17.984;2023-06-10T05:07:01;99552.40;;;17.80
69590;BMP180;56792;50.644;17.984;2023-06-10T05:09:32;99553.00;;;17.90
69590;BMP180;56792;50.644;17.984;2023-06-10T05:12:04;99553.40;;;18.00
69590;BMP180;56792;50.644;17.984;2023-06-10T05:14:35;99553.40;;;18.10
69590;BMP180;56792;50.644;17.984;2023-06-10T05:17:07;99559.60;;;18.12
69590;BMP180;56792;50.644;17.984;2023-06-10T05:19:38;99552.20;;;18.20
69590;BMP180;56792;50.644;17.984;2023-06-10T05:22:09;99554.40;;;18.30
69590;BMP180;56792;50.644;17.984;2023-06-10T05:24:40;99557.40;;;18.40
69590;BMP180;56792;50.644;17.984;2023-06-10T05:27:11;99563.20;;;18.50
69590;BMP180;56792;50.644;17.984;2023-06-10T05:29:42;99565.00;;;18.60
69590;BMP180;56792;50.644;17.984;2023-06-10T05:32:13;99567.20;;;18.70
69590;BMP180;56792;50.644;17.984;2023-06-10T05:34:44;99569.00;;;18.74
69590;BMP180;56792;50.644;17.984;2023-06-10T05:37:15;99567.20;;;18.80
69590;BMP180;56792;50.644;17.984;2023-06-10T05:39:46;99570.80;;;18.90
69590;BMP180;56792;50.644;17.984;2023-06-10T05:42:17;99573.00;;;18.90
69590;BMP180;56792;50.644;17.984;2023-06-10T05:44:48;99577.00;;;18.98
69590;BMP180;56792;50.644;17.984;2023-06-10T05:47:19;99573.80;;;19.00
69590;BMP180;56792;50.644;17.984;2023-06-10T05:49:50;99575.00;;;19.10
69590;BMP180;56792;50.644;17.984;2023-06-10T05:52:21;99572.40;;;19.20
69590;BMP180;56792;50.644;17.984;2023-06-10T05:54:52;99574.40;;;19.30
69590;BMP180;56792;50.644;17.984;2023-06-10T05:57:24;99577.20;;;19.40
69590;BMP180;56792;50.644;17.984;2023-06-10T05:59:55;99578.40;;;19.50
69590;BMP180;56792;50.644;17.984;2023-06-10T06:02:26;99578.80;;;19.60
69590;BMP180;56792;50.644;17.984;2023-06-10T06:04:57;99580.00;;;19.70
69590;BMP180;56792;50.644;17.984;2023-06-10T06:07:29;99580.40;;;19.70
69590;BMP180;56792;50.644;17.984;2023-06-10T06:10:00;99585.20;;;19.70
69590;BMP180;56792;50.644;17.984;2023-06-10T06:12:31;99580.00;;;19.70
69590;BMP180;56792;50.644;17.984;2023-06-10T06:15:02;99581.60;;;19.80
69590;BMP180;56792;50.644;17.984;2023-06-10T06:17:34;99579.00;;;19.90
69590;BMP180;56792;50.644;17.984;2023-06-10T06:20:08;99581.60;;;19.98
69590;BMP180;56792;50.644;17.984;2023-06-10T06:22:39;99585.20;;;20.10
69590;BMP180;56792;50.644;17.984;2023-06-10T06:25:10;99590.00;;;20.20
69590;BMP180;56792;50.644;17.984;2023-06-10T06:27:41;99590.40;;;20.40
69590;BMP180;56792;50.644;17.984;2023-06-10T06:30:13;99591.60;;;20.50
69590;BMP180;56792;50.644;17.984;2023-06-10T06:32:44;99594.40;;;20.60
69590;BMP180;56792;50.644;17.984;2023-06-10T06:35:15;99601.00;;;20.70
69590;BMP180;56792;50.644;17.984;2023-06-10T06:37:46;99602.60;;;20.80
69590;BMP180;56792;50.644;17.984;2023-06-10T06:40:23;99605.80;;;20.80
69590;BMP180;56792;50.644;17.984;2023-06-10T06:42:54;99610.80;;;20.80
69590;BMP180;56792;50.644;17.984;2023-06-10T06:45:43;99606.20;;;20.70
69590;BMP180;56792;50.644;17.984;2023-06-10T06:48:14;99609.00;;;20.70
69590;BMP180;56792;50.644;17.984;2023-06-10T06:50:45;99616.60;;;20.70
69590;BMP180;56792;50.644;17.984;2023-06-10T06:53:16;99618.00;;;20.80
69590;BMP180;56792;50.644;17.984;2023-06-10T06:55:47;99620.80;;;20.80
69590;BMP180;56792;50.644;17.984;2023-06-10T06:58:18;99624.20;;;20.80
69590;BMP180;56792;50.644;17.984;2023-06-10T07:00:50;99624.60;;;20.86
69590;BMP180;56792;50.644;17.984;2023-06-10T07:03:21;99623.00;;;20.90
69590;BMP180;56792;50.644;17.984;2023-06-10T07:05:51;99628.60;;;21.00
69590;BMP180;56792;50.644;17.984;2023-06-10T07:08:22;99635.20;;;21.10
69590;BMP180;56792;50.644;17.984;2023-06-10T07:10:53;99639.20;;;21.20
69590;BMP180;56792;50.644;17.984;2023-06-10T07:13:24;99641.00;;;21.36
69590;BMP180;56792;50.644;17.984;2023-06-10T07:15:55;99642.20;;;21.50
69590;BMP180;56792;50.644;17.984;2023-06-10T07:18:26;99648.40;;;21.60
69590;BMP180;56792;50.644;17.984;2023-06-10T07:20:57;99649.00;;;21.70
69590;BMP180;56792;50.644;17.984;2023-06-10T07:23:28;99650.60;;;21.80
69590;BMP180;56792;50.644;17.984;2023-06-10T07:25:59;99654.60;;;21.90
69590;BMP180;56792;50.644;17.984;2023-06-10T07:28:30;99656.00;;;21.90
69590;BMP180;56792;50.644;17.984;2023-06-10T07:31:01;99659.80;;;22.00
69590;BMP180;56792;50.644;17.984;2023-06-10T07:33:32;99659.80;;;22.02
69590;BMP180;56792;50.644;17.984;2023-06-10T07:36:03;99662.20;;;22.10
69590;BMP180;56792;50.644;17.984;2023-06-10T07:38:34;99661.60;;;22.10
69590;BMP180;56792;50.644;17.984;2023-06-10T07:41:06;99661.80;;;22.00
69590;BMP180;56792;50.644;17.984;2023-06-10T07:43:36;99664.00;;;22.00
69590;BMP180;56792;50.644;17.984;2023-06-10T07:46:07;99663.80;;;22.06
69590;BMP180;56792;50.644;17.984;2023-06-10T07:48:39;99671.80;;;22.00
69590;BMP180;56792;50.644;17.984;2023-06-10T07:51:10;99669.80;;;22.06
69590;BMP180;56792;50.644;17.984;2023-06-10T07:53:41;99667.00;;;22.10
69590;BMP180;56792;50.644;17.984;2023-06-10T07:56:13;99668.00;;;22.12
69590;BMP180;56792;50.644;17.984;2023-06-10T07:58:44;99671.20;;;22.12
69590;BMP180;56792;50.644;17.984;2023-06-10T08:01:15;99669.20;;;22.20
69590;BMP180;56792;50.644;17.984;2023-06-10T08:03:46;99667.60;;;22.20
69590;BMP180;56792;50.644;17.984;2023-06-10T08:06:18;99665.80;;;22.30
69590;BMP180;56792;50.644;17.984;2023-06-10T08:08:49;99667.60;;;22.30
69590;BMP180;56792;50.644;17.984;2023-06-10T08:11:20;99668.80;;;22.34
69590;BMP180;56792;50.644;17.984;2023-06-10T08:13:51;99675.40;;;22.40
69590;BMP180;56792;50.644;17.984;2023-06-10T08:16:22;99677.80;;;22.40
69590;BMP180;56792;50.644;17.984;2023-06-10T08:18:53;99676.00;;;22.58
69590;BMP180;56792;50.644;17.984;2023-06-10T08:21:25;99676.20;;;22.70
69590;BMP180;56792;50.644;17.984;2023-06-10T08:23:57;99682.20;;;22.90
69590;BMP180;56792;50.644;17.984;2023-06-10T08:26:28;99681.80;;;23.00
69590;BMP180;56792;50.644;17.984;2023-06-10T08:29:00;99682.40;;;23.20
69590;BMP180;56792;50.644;17.984;2023-06-10T08:31:31;99683.80;;;23.40
69590;BMP180;56792;50.644;17.984;2023-06-10T08:34:02;99694.20;;;23.70
69590;BMP180;56792;50.644;17.984;2023-06-10T08:36:33;99694.60;;;24.00
69590;BMP180;56792;50.644;17.984;2023-06-10T08:39:04;99696.40;;;24.26
69590;BMP180;56792;50.644;17.984;2023-06-10T08:41:42;99694.80;;;24.54
69590;BMP180;56792;50.644;17.984;2023-06-10T08:44:26;99692.80;;;24.90
69590;BMP180;56792;50.644;17.984;2023-06-10T08:47:00;99697.20;;;25.30
69590;BMP180;56792;50.644;17.984;2023-06-10T08:49:36;99699.40;;;25.60
69590;BMP180;56792;50.644;17.984;2023-06-10T08:52:13;99703.40;;;25.72
69590;BMP180;56792;50.644;17.984;2023-06-10T08:54:51;99710.40;;;25.90
69590;BMP180;56792;50.644;17.984;2023-06-10T08:57:23;99709.80;;;26.00
69590;BMP180;56792;50.644;17.984;2023-06-10T08:59:57;99708.80;;;26.10
69590;BMP180;56792;50.644;17.984;2023-06-10T09:02:30;99707.00;;;26.20
69590;BMP180;56792;50.644;17.984;2023-06-10T09:05:03;99705.20;;;26.18
69590;BMP180;56792;50.644;17.984;2023-06-10T09:07:34;99709.40;;;26.20
69590;BMP180;56792;50.644;17.984;2023-06-10T09:10:09;99706.60;;;26.30
69590;BMP180;56792;50.644;17.984;2023-06-10T09:12:40;99709.20;;;26.40
69590;BMP180;56792;50.644;17.984;2023-06-10T09:15:12;99706.80;;;26.36
69590;BMP180;56792;50.644;17.984;2023-06-10T09:17:44;99707.60;;;26.42
69590;BMP180;56792;50.644;17.984;2023-06-10T09:20:15;99708.40;;;26.50
69590;BMP180;56792;50.644;17.984;2023-06-10T09:22:46;99708.00;;;26.60
69590;BMP180;56792;50.644;17.984;2023-06-10T09:25:18;99710.00;;;26.70
69590;BMP180;56792;50.644;17.984;2023-06-10T09:27:51;99715.00;;;26.80
69590;BMP180;56792;50.644;17.984;2023-06-10T09:30:31;99710.80;;;26.96
69590;BMP180;56792;50.644;17.984;2023-06-10T09:33:09;99703.80;;;27.18
69590;BMP180;56792;50.644;17.984;2023-06-10T09:35:48;99709.40;;;27.50
69590;BMP180;56792;50.644;17.984;2023-06-10T09:38:23;99701.00;;;27.70
69590;BMP180;56792;50.644;17.984;2023-06-10T09:40:55;99699.80;;;27.90
69590;BMP180;56792;50.644;17.984;2023-06-10T09:43:41;99699.60;;;28.00
69590;BMP180;56792;50.644;17.984;2023-06-10T09:46:19;99700.20;;;28.10
69590;BMP180;56792;50.644;17.984;2023-06-10T09:48:50;99699.00;;;28.10
69590;BMP180;56792;50.644;17.984;2023-06-10T09:51:21;99701.80;;;28.10
69590;BMP180;56792;50.644;17.984;2023-06-10T09:53:53;99693.00;;;28.10
69590;BMP180;56792;50.644;17.984;2023-06-10T09:56:35;99699.00;;;28.02
69590;BMP180;56792;50.644;17.984;2023-06-10T09:59:06;99696.60;;;28.10
69590;BMP180;56792;50.644;17.984;2023-06-10T10:01:37;99698.80;;;28.20
69590;BMP180;56792;50.644;17.984;2023-06-10T10:04:08;99700.00;;;28.40
69590;BMP180;56792;50.644;17.984;2023-06-10T10:06:40;99701.60;;;28.52
69590;BMP180;56792;50.644;17.984;2023-06-10T10:09:11;99698.00;;;28.72
69590;BMP180;56792;50.644;17.984;2023-06-10T10:11:43;99697.00;;;28.90
69590;BMP180;56792;50.644;17.984;2023-06-10T10:14:15;99696.20;;;29.08
69590;BMP180;56792;50.644;17.984;2023-06-10T10:16:48;99691.20;;;29.20
69590;BMP180;56792;50.644;17.984;2023-06-10T10:19:28;99693.80;;;29.40
69590;BMP180;56792;50.644;17.984;2023-06-10T10:22:07;99695.40;;;29.60
69590;BMP180;56792;50.644;17.984;2023-06-10T10:24:45;99694.20;;;29.70
69590;BMP180;56792;50.644;17.984;2023-06-10T10:27:28;99692.60;;;29.70
69590;BMP180;56792;50.644;17.984;2023-06-10T10:30:01;99695.80;;;29.90
69590;BMP180;56792;50.644;17.984;2023-06-10T10:32:40;99682.40;;;30.00
69590;BMP180;56792;50.644;17.984;2023-06-10T10:35:19;99680.60;;;30.20
69590;BMP180;56792;50.644;17.984;2023-06-10T10:37:54;99687.80;;;30.08
69590;BMP180;56792;50.644;17.984;2023-06-10T10:40:27;99688.80;;;30.10
69590;BMP180;56792;50.644;17.984;2023-06-10T10:43:00;99682.20;;;29.90
69590;BMP180;56792;50.644;17.984;2023-06-10T10:45:31;99679.60;;;29.90
69590;BMP180;56792;50.644;17.984;2023-06-10T10:48:10;99675.60;;;30.16
69590;BMP180;56792;50.644;17.984;2023-06-10T10:50:42;99675.20;;;30.30
69590;BMP180;56792;50.644;17.984;2023-06-10T10:53:21;99681.40;;;30.20
69590;BMP180;56792;50.644;17.984;2023-06-10T10:56:06;99678.60;;;30.40
69590;BMP180;56792;50.644;17.984;2023-06-10T10:58:37;99674.20;;;30.50
69590;BMP180;56792;50.644;17.984;2023-06-10T11:01:16;99662.00;;;30.60
69590;BMP180;56792;50.644;17.984;2023-06-10T11:03:48;99661.00;;;30.74
69590;BMP180;56792;50.644;17.984;2023-06-10T11:06:21;99657.80;;;30.90
69590;BMP180;56792;50.644;17.984;2023-06-10T11:08:52;99653.40;;;31.10
69590;BMP180;56792;50.644;17.984;2023-06-10T11:11:25;99659.20;;;31.34
69590;BMP180;56792;50.644;17.984;2023-06-10T11:14:08;99657.20;;;31.58
69590;BMP180;56792;50.644;17.984;2023-06-10T11:16:43;99653.00;;;31.80
69590;BMP180;56792;50.644;17.984;2023-06-10T11:19:34;99639.20;;;31.90
69590;BMP180;56792;50.644;17.984;2023-06-10T11:22:07;99636.00;;;32.00
69590;BMP180;56792;50.644;17.984;2023-06-10T11:24:40;99633.40;;;32.00
69590;BMP180;56792;50.644;17.984;2023-06-10T11:27:22;99625.20;;;32.10
69590;BMP180;56792;50.644;17.984;2023-06-10T11:30:19;99629.20;;;32.10
69590;BMP180;56792;50.644;17.984;2023-06-10T11:32:54;99634.80;;;32.06
69590;BMP180;56792;50.644;17.984;2023-06-10T11:35:27;99636.20;;;32.00
69590;BMP180;56792;50.644;17.984;2023-06-10T11:38:00;99632.20;;;32.02
69590;BMP180;56792;50.644;17.984;2023-06-10T11:40:32;99628.00;;;32.08
69590;BMP180;56792;50.644;17.984;2023-06-10T11:43:05;99629.20;;;32.30
69590;BMP180;56792;50.644;17.984;2023-06-10T11:45:36;99628.20;;;32.50
69590;BMP180;56792;50.644;17.984;2023-06-10T11:48:09;99627.60;;;32.50
69590;BMP180;56792;50.644;17.984;2023-06-10T11:50:40;99628.00;;;32.40
69590;BMP180;56792;50.644;17.984;2023-06-10T11:53:12;99624.00;;;32.40
69590;BMP180;56792;50.644;17.984;2023-06-10T11:55:46;99622.40;;;32.40
69590;BMP180;56792;50.644;17.984;2023-06-10T11:58:19;99625.60;;;32.20
69590;BMP180;56792;50.644;17.984;2023-06-10T12:00:52;99619.20;;;32.34
69590;BMP180;56792;50.644;17.984;2023-06-10T12:03:24;99613.60;;;32.50
69590;BMP180;56792;50.644;17.984;2023-06-10T12:06:03;99609.20;;;32.50
69590;BMP180;56792;50.644;17.984;2023-06-10T12:08:42;99606.80;;;32.50
69590;BMP180;56792;50.644;17.984;2023-06-10T12:11:14;99608.00;;;32.40
69590;BMP180;56792;50.644;17.984;2023-06-10T12:13:50;99612.20;;;32.40
69590;BMP180;56792;50.644;17.984;2023-06-10T12:16:21;99607.40;;;32.40
69590;BMP180;56792;50.644;17.984;2023-06-10T12:19:02;99604.80;;;32.40
69590;BMP180;56792;50.644;17.984;2023-06-10T12:21:37;99607.60;;;32.42
69590;BMP180;56792;50.644;17.984;2023-06-10T12:24:11;99603.40;;;32.50
69590;BMP180;56792;50.644;17.984;2023-06-10T12:26:44;99601.60;;;32.30
69590;BMP180;56792;50.644;17.984;2023-06-10T12:29:25;99594.60;;;32.40
69590;BMP180;56792;50.644;17.984;2023-06-10T12:32:04;99598.40;;;32.40
69590;BMP180;56792;50.644;17.984;2023-06-10T12:34:39;99599.20;;;32.50
69590;BMP180;56792;50.644;17.984;2023-06-10T12:37:14;99603.40;;;32.60
69590;BMP180;56792;50.644;17.984;2023-06-10T12:39:53;99601.20;;;32.86
69590;BMP180;56792;50.644;17.984;2023-06-10T12:42:26;99602.80;;;33.06
69590;BMP180;56792;50.644;17.984;2023-06-10T12:44:57;99599.40;;;33.30
69590;BMP180;56792;50.644;17.984;2023-06-10T12:47:34;99601.00;;;33.24
69590;BMP180;56792;50.644;17.984;2023-06-10T12:50:10;99607.60;;;33.20
69590;BMP180;56792;50.644;17.984;2023-06-10T12:52:42;99605.00;;;33.20
69590;BMP180;56792;50.644;17.984;2023-06-10T12:55:13;99606.20;;;33.20
69590;BMP180;56792;50.644;17.984;2023-06-10T12:57:52;99613.40;;;33.20
69590;BMP180;56792;50.644;17.984;2023-06-10T13:00:23;99615.00;;;33.10
69590;BMP180;56792;50.644;17.984;2023-06-10T13:02:55;99619.00;;;33.00
69590;BMP180;56792;50.644;17.984;2023-06-10T13:05:26;99612.20;;;33.00
69590;BMP180;56792;50.644;17.984;2023-06-10T13:07:57;99619.40;;;33.14
69590;BMP180;56792;50.644;17.984;2023-06-10T13:10:29;99622.60;;;33.20
69590;BMP180;56792;50.644;17.984;2023-06-10T13:13:00;99625.00;;;33.00
69590;BMP180;56792;50.644;17.984;2023-06-10T13:15:32;99625.60;;;32.90
69590;BMP180;56792;50.644;17.984;2023-06-10T13:18:05;99629.60;;;32.80
69590;BMP180;56792;50.644;17.984;2023-06-10T13:20:36;99624.00;;;32.50
69590;BMP180;56792;50.644;17.984;2023-06-10T13:23:07;99626.40;;;32.20
69590;BMP180;56792;50.644;17.984;2023-06-10T13:25:38;99622.00;;;31.90
69590;BMP180;56792;50.644;17.984;2023-06-10T13:28:10;99620.00;;;31.58
69590;BMP180;56792;50.644;17.984;2023-06-10T13:30:41;99618.40;;;31.50
69590;BMP180;56792;50.644;17.984;2023-06-10T13:33:12;99622.60;;;31.68
69590;BMP180;56792;50.644;17.984;2023-06-10T13:35:43;99630.00;;;31.70
69590;BMP180;56792;50.644;17.984;2023-06-10T13:38:14;99630.80;;;31.60
69590;BMP180;56792;50.644;17.984;2023-06-10T13:40:45;99635.60;;;31.60
69590;BMP180;56792;50.644;17.984;2023-06-10T13:43:16;99634.60;;;31.48
69590;BMP180;56792;50.644;17.984;2023-06-10T13:45:47;99644.00;;;31.30
69590;BMP180;56792;50.644;17.984;2023-06-10T13:48:18;99643.00;;;31.20
69590;BMP180;56792;50.644;17.984;2023-06-10T13:50:50;99645.80;;;30.96
69590;BMP180;56792;50.644;17.984;2023-06-10T13:53:21;99637.20;;;30.72
69590;BMP180;56792;50.644;17.984;2023-06-10T13:55:52;99630.80;;;30.54
69590;BMP180;56792;50.644;17.984;2023-06-10T13:58:23;99633.40;;;30.40
69590;BMP180;56792;50.644;17.984;2023-06-10T14:00:54;99636.80;;;30.20
69590;BMP180;56792;50.644;17.984;2023-06-10T14:03:25;99633.40;;;29.90
69590;BMP180;56792;50.644;17.984;2023-06-10T14:05:56;99630.40;;;29.70
69590;BMP180;56792;50.644;17.984;2023-06-10T14:08:27;99626.00;;;29.58
69590;BMP180;56792;50.644;17.984;2023-06-10T14:10:58;99626.80;;;29.40
69590;BMP180;56792;50.644;17.984;2023-06-10T14:13:29;99626.60;;;29.40
69590;BMP180;56792;50.644;17.984;2023-06-10T14:15:59;99620.20;;;29.20
69590;BMP180;56792;50.644;17.984;2023-06-10T14:18:32;99615.40;;;29.20
69590;BMP180;56792;50.644;17.984;2023-06-10T14:21:03;99613.20;;;29.10
69590;BMP180;56792;50.644;17.984;2023-06-10T14:23:34;99605.80;;;28.90
69590;BMP180;56792;50.644;17.984;2023-06-10T14:26:05;99608.00;;;28.80
69590;BMP180;56792;50.644;17.984;2023-06-10T14:28:37;99605.40;;;28.80